Flight Track Log - Related Links

Times and Time Zones

All times are in EST time to prevent confusion due to time zone crossing. See the SWA2153 flight status page for this flight to view local times or setup timezone preferences in your user account.

Time Position Orientation Groundspeed Altitude Reporting Facility
EST Latitude Longitude Course Direction KTS MPH feet Rate Location/Type
Sun 09:49:10 PM 18.4500 -65.9667 342° North 150 173 1,300  Level San Juan Center
Sun 09:50:11 PM 18.5000 -65.9833 342° North 230 265 3,000 1,736 Climbing San Juan Center
Sun 09:51:11 PM 18.5667 -66.0333 325° Northwest 270 311 4,800 2,420 Climbing San Juan Center
Sun 09:52:10 PM 18.6333 -66.0833 325° Northwest 300 345 7,800 2,850 Climbing San Juan Center
Sun 09:53:11 PM 18.6833 -66.1500 308° West 320 368 10,500 2,182 Climbing San Juan Center
Sun 09:54:11 PM 18.7500 -66.2500 305° West 370 426 12,200 2,050 Climbing San Juan Center
Sun 09:55:11 PM 18.8167 -66.3333 310° West 390 449 14,600 2,150 Climbing San Juan Center
Sun 09:56:11 PM 18.8833 -66.4333 305° West 420 483 16,500 2,100 Climbing San Juan Center
Sun 09:57:11 PM 18.9667 -66.5167 317° Northwest 430 495 18,800 2,300 Climbing San Juan Center
Sun 09:58:11 PM 19.0500 -66.6167 311° West 430 495 21,100 2,150 Climbing San Juan Center
Sun 09:59:11 PM 19.1500 -66.7000 322° Northwest 430 495 23,100 1,983 Climbing San Juan Center
Sun 10:00:12 PM 19.2333 -66.7667 323° Northwest 420 483 25,100 1,835 Climbing San Juan Center
Sun 10:01:12 PM 19.3333 -66.8500 322° Northwest 440 506 26,800 1,600 Climbing San Juan Center
Sun 10:02:12 PM 19.4333 -66.9167 328° Northwest 440 506 28,300 1,650 Climbing San Juan Center
Sun 10:03:12 PM 19.5167 -67.0000 317° Northwest 440 506 30,100 1,700 Climbing San Juan Center
Sun 10:04:12 PM 19.6167 -67.0833 322° Northwest 440 506 31,700 1,300 Climbing San Juan Center
Sun 10:05:12 PM 19.7167 -67.1667 322° Northwest 450 518 32,700 1,150 Climbing San Juan Center
Sun 10:06:12 PM 19.8167 -67.2500 322° Northwest 460 529 34,000 1,388 Climbing San Juan Center
Sun 10:07:13 PM 19.9167 -67.3333 322° Northwest 450 518 35,500 992 Climbing San Juan Center
Sun 10:08:13 PM 20.0167 -67.4167 322° Northwest 450 518 36,000 250 Climbing San Juan Center
Sun 10:09:13 PM 20.1167 -67.5000 322° Northwest 450 518 36,000  Level San Juan Center
Sun 10:10:13 PM 20.2167 -67.5833 322° Northwest 450 518 36,000  Level San Juan Center
Sun 10:11:13 PM 20.3167 -67.6833 317° Northwest 450 518 36,000  Level San Juan Center
Sun 10:12:13 PM 20.4000 -67.7500 323° Northwest 450 518 36,000  Level San Juan Center
Sun 10:13:38 PM 20.5522 -67.8767 322° Northwest 536 617 36,000  Level Miami Center
Sun 10:14:38 PM 20.6467 -67.9611 320° Northwest 489 563 36,000  Level Miami Center
Sun 10:15:36 PM 20.7431 -68.0478 320° Northwest 457 526 36,000  Level Miami Center
Sun 10:16:38 PM 20.8256 -68.1442 312° West 445 512 36,000  Level Miami Center
Sun 10:17:38 PM 20.9083 -68.2453 311° West 445 512 36,000  Level Miami Center
Sun 10:18:36 PM 20.9886 -68.3444 311° West 445 512 36,000  Level Miami Center
Sun 10:19:37 PM 21.0731 -68.4411 313° West 450 518 36,000  Level Miami Center
Sun 10:20:37 PM 21.1597 -68.5400 313° West 450 518 36,000  Level Miami Center
Sun 10:21:38 PM 21.2358 -68.6375 310° West 450 518 36,000  Level Miami Center
Sun 10:22:37 PM 21.3097 -68.7353 309° West 436 502 36,000  Level Miami Center
Sun 10:23:38 PM 21.4022 -68.8342 315° West 441 507 36,000  Level Miami Center
Sun 10:24:38 PM 21.4844 -68.9317 312° West 441 507 36,000  Level Miami Center
Sun 10:25:38 PM 21.5625 -69.0294 311° West 441 507 36,000  Level Miami Center
Sun 10:26:37 PM 21.6425 -69.1272 311° West 441 507 36,000  Level Miami Center
Sun 10:27:35 PM 21.7203 -69.2253 311° West 441 507 36,000  Level Miami Center
Sun 10:28:38 PM 21.8003 -69.3233 311° West 441 507 36,000  Level Miami Center
Sun 10:29:37 PM 21.8883 -69.4233 314° West 447 514 36,000  Level Miami Center
Sun 10:30:36 PM 21.9706 -69.5236 311° West 447 514 36,000  Level Miami Center
Sun 10:31:37 PM 22.0567 -69.6264 312° West 447 514 36,000  Level Miami Center
Sun 10:32:37 PM 22.1342 -69.7250 310° West 447 514 36,000  Level Miami Center
Sun 10:33:35 PM 22.2203 -69.8278 312° West 446 513 36,000  Level Miami Center
Sun 10:34:36 PM 22.3019 -69.9264 312° West 446 513 36,000  Level Miami Center
Sun 10:35:35 PM 22.3817 -70.0275 310° West 446 513 36,000  Level Miami Center
Sun 10:36:36 PM 22.4656 -70.1286 312° West 441 507 36,000  Level Miami Center
Sun 10:37:35 PM 22.5469 -70.2278 312° West 441 507 36,000  Level Miami Center
Sun 10:38:36 PM 22.6242 -70.3250 311° West 441 507 36,000  Level Miami Center
Sun 10:39:37 PM 22.7036 -70.4222 312° West 441 507 36,000  Level Miami Center
Sun 10:40:36 PM 22.7850 -70.5217 312° West 446 513 36,000  Level Miami Center
Sun 10:41:37 PM 22.8664 -70.6256 310° West 446 513 36,000  Level Miami Center
Sun 10:42:36 PM 22.9456 -70.7186 313° West 441 507 36,000  Level Miami Center
Sun 10:43:36 PM 23.0247 -70.8231 309° West 441 507 36,000  Level Miami Center
Sun 10:44:37 PM 23.1058 -70.9208 312° West 441 507 36,000  Level Miami Center
Sun 10:45:37 PM 23.1828 -71.0211 310° West 441 507 36,000  Level Miami Center
Sun 10:46:37 PM 23.2617 -71.1169 312° West 441 507 36,000  Level Miami Center
Sun 10:47:37 PM 23.3406 -71.2175 311° West 441 507 36,000  Level Miami Center
Sun 10:48:37 PM 23.4194 -71.3156 311° West 436 502 36,000  Level Miami Center
Sun 10:49:36 PM 23.4981 -71.4142 311° West 436 502 36,000  Level Miami Center
Sun 10:50:36 PM 23.5769 -71.5150 310° West 441 507 36,000  Level Miami Center
Sun 10:51:37 PM 23.6533 -71.6114 311° West 441 507 36,000  Level Miami Center
Sun 10:52:35 PM 23.7342 -71.7078 313° West 435 501 36,000  Level Miami Center
Sun 10:53:36 PM 23.8083 -71.8069 309° West 435 501 36,000  Level Miami Center
Sun 10:54:37 PM 23.8847 -71.9061 310° West 435 501 36,000  Level Miami Center
Sun 10:55:38 PM 23.9633 -72.0053 311° West 435 501 36,000  Level Miami Center
Sun 10:56:38 PM 24.0394 -72.1044 310° West 435 501 36,000  Level Miami Center
Sun 10:57:37 PM 24.1178 -72.1994 312° West 441 507 36,000  Level Miami Center
Sun 10:58:38 PM 24.1961 -72.2989 311° West 436 502 36,000  Level Miami Center
Sun 10:59:35 PM 24.2722 -72.4031 309° West 436 502 36,000  Level Miami Center
Sun 11:00:36 PM 24.3528 -72.5097 310° West 436 502 36,000  Level Miami Center
Sun 11:01:38 PM 24.4308 -72.6097 311° West 436 502 36,000  Level Miami Center
Sun 11:02:35 PM 24.5089 -72.7075 311° West 436 502 36,000  Level Miami Center
Sun 11:03:37 PM 24.5847 -72.8075 310° West 436 502 36,000  Level Miami Center
Sun 11:04:37 PM 24.6669 -72.9100 311° West 436 502 36,000  Level Miami Center
Sun 11:05:35 PM 24.7425 -73.0083 310° West 436 502 36,000  Level Miami Center
Sun 11:06:36 PM 24.8203 -73.1089 310° West 436 502 36,000  Level Miami Center
Sun 11:07:37 PM 24.8958 -73.2072 310° West 441 507 36,000  Level Miami Center
Sun 11:08:37 PM 24.9714 -73.3081 310° West 441 507 36,000  Level Miami Center
Sun 11:09:36 PM 25.0492 -73.4114 310° West 441 507 36,000  Level Miami Center
Sun 11:10:37 PM 25.1267 -73.5147 310° West 436 502 36,000  Level Miami Center
Sun 11:11:35 PM 25.2042 -73.6136 311° West 436 502 36,000  Level Miami Center
Sun 11:12:36 PM 25.2836 -73.7172 310° West 441 507 36,000  Level Miami Center
Sun 11:13:35 PM 25.3547 -73.8142 309° West 441 507 36,000  Level Miami Center
Sun 11:14:37 PM 25.4319 -73.9133 311° West 436 502 36,000  Level Miami Center
Sun 11:15:37 PM 25.5092 -74.0197 309° West 436 502 36,000  Level Miami Center
Sun 11:16:38 PM 25.5842 -74.1169 311° West 433 498 36,000  Level Miami Center
Sun 11:17:36 PM 25.6550 -74.2122 310° West 428 493 36,000  Level Miami Center
Sun 11:18:35 PM 25.7319 -74.3167 309° West 428 493 36,000  Level Miami Center
Sun 11:19:38 PM 25.8067 -74.4028 314° West 427 491 36,000  Level Miami Center
Sun 11:20:36 PM 25.8731 -74.5008 307° West 420 483 36,000  Level Miami Center
Sun 11:21:38 PM 25.9519 -74.6031 311° West 420 483 36,000  Level Miami Center
Sun 11:22:35 PM 26.0181 -74.7014 307° West 413 475 36,000  Level Miami Center
Sun 11:23:37 PM 26.0928 -74.7994 310° West 418 481 36,000 341 Level Miami Center
Sun 11:24:38 PM 26.1736 -74.9044 311° West 419 482 36,700 504 Climbing Miami Center
Sun 11:25:36 PM 26.2458 -75.0053 309° West 414 476 37,000 151 Climbing Miami Center
Sun 11:26:37 PM 26.3222 -75.1036 311° West 414 476 37,000  Level Miami Center
Sun 11:27:36 PM 26.3839 -75.1956 307° West 410 472 37,000  Level Miami Center
Sun 11:28:38 PM 26.4561 -75.2944 309° West 411 473 37,000  Level Miami Center
Sun 11:29:36 PM 26.5367 -75.3978 311° West 412 474 37,000  Level Miami Center
Sun 11:30:37 PM 26.6044 -75.4944 308° West 418 481 37,000  Level Miami Center
Sun 11:31:37 PM 26.6742 -75.5892 309° West 405 466 37,000  Level Miami Center
Sun 11:32:37 PM 26.7503 -75.6931 309° West 411 473 37,000  Level Miami Center
Sun 11:33:38 PM 26.8200 -75.7900 309° West 410 472 37,000  Level Miami Center
Sun 11:34:36 PM 26.8875 -75.8850 309° West 414 476 37,000  Level Miami Center
Sun 11:35:38 PM 26.9592 -75.9869 308° West 420 483 37,000  Level Miami Center
Sun 11:36:37 PM 27.0286 -76.0797 310° West 414 476 37,000  Level Miami Center
Sun 11:37:35 PM 27.1003 -76.1794 309° West 414 476 37,000  Level Miami Center
Sun 11:38:38 PM 27.1675 -76.2747 308° West 414 476 37,000  Level Miami Center
Sun 11:39:36 PM 27.2367 -76.3656 311° West 400 460 37,000  Level Miami Center
Sun 11:40:36 PM 27.3081 -76.4728 307° West 414 476 37,000  Level Miami Center
Sun 11:41:35 PM 27.3814 -76.5733 309° West 409 471 37,000  Level Miami Center
Sun 11:42:36 PM 27.4506 -76.6714 308° West 416 479 37,000  Level Miami Center
Sun 11:43:38 PM 27.5217 -76.7742 308° West 416 479 37,000  Level Miami Center
Sun 11:44:38 PM 27.5906 -76.8750 308° West 411 473 37,000  Level Miami Center
Sun 11:45:38 PM 27.6594 -76.9664 310° West 411 473 37,000  Level Miami Center
Sun 11:46:38 PM 27.7303 -77.0675 308° West 405 466 37,000  Level Miami Center
Sun 11:47:36 PM 27.8053 -77.1778 308° West 405 466 37,000  Level Miami Center
Sun 11:48:35 PM 27.8761 -77.2722 310° West 411 473 37,000  Level Miami Center
Sun 11:49:38 PM 27.9467 -77.3806 306° West 416 479 37,000  Level Miami Center
Sun 11:50:36 PM 28.0194 -77.4772 310° West 416 479 37,000  Level Miami Center
Sun 11:51:38 PM 28.0878 -77.5764 308° West 408 470 37,000  Level Miami Center
Sun 11:52:37 PM 28.1753 -77.6500 323° Northwest 391 450 37,000  Level Miami Center
Sun 11:53:37 PM 28.2878 -77.6839 345° North 386 444 37,000  Level Miami Center
Sun 11:54:38 PM 28.3919 -77.7178 344° North 396 456 37,000  Level Miami Center
Sun 11:55:35 PM 28.5108 -77.7542 345° North 406 467 37,000  Level Miami Center
Sun 11:56:38 PM 28.6147 -77.7881 344° North 411 473 37,000  Level Miami Center
Sun 11:57:36 PM 28.7356 -77.8222 346° North 418 481 37,000  Level Miami Center
Sun 11:58:36 PM 28.8419 -77.8561 344° North 412 474 37,000  Level Miami Center
Sun 11:59:36 PM 28.9586 -77.8928 345° North 412 474 37,000  Level Miami Center
Mon 12:00:37 AM 29.0667 -77.9272 344° North 412 474 37,000  Level Miami Center
Mon 12:01:37 AM 29.1811 -77.9617 345° North 411 473 37,000  Level Miami Center
Mon 12:02:35 AM 29.2914 -77.9983 344° North 411 473 37,000  Level Miami Center
Mon 12:03:37 AM 29.4081 -78.0353 345° North 423 487 37,000  Level Miami Center
Mon 12:04:35 AM 29.5122 -78.0650 346° North 414 476 37,000  Level Miami Center
Mon 12:05:38 AM 29.6306 -78.1044 344° North 413 475 37,000  Level Miami Center
Mon 12:06:24 AM 29.7161 -78.1269 347° North 426 490 37,000  Level Jacksonville Center
Mon 12:07:24 AM 29.8281 -78.1622 345° North 402 463 37,000  Level Jacksonville Center
Mon 12:08:24 AM 29.9442 -78.1997 344° North 422 486 37,000  Level Jacksonville Center
Mon 12:09:24 AM 30.0561 -78.2350 345° North 410 472 37,000  Level Jacksonville Center
Mon 12:10:24 AM 30.1703 -78.2728 344° North 420 483 37,000  Level Jacksonville Center
Mon 12:11:24 AM 30.2653 -78.3042 344° North 415 478 37,000  Level Jacksonville Center
Mon 12:12:24 AM 30.3792 -78.3372 346° North 415 478 37,000  Level Jacksonville Center
Mon 12:13:24 AM 30.4981 -78.3317 North 416 479 37,000  Level Jacksonville Center
Mon 12:14:24 AM 30.6222 -78.3039 11° North 437 503 37,000  Level Jacksonville Center
Mon 12:15:24 AM 30.7444 -78.2786 10° North 443 510 37,000  Level Jacksonville Center
Mon 12:16:24 AM 30.8772 -78.2553 North 449 517 37,000  Level Jacksonville Center
Mon 12:17:24 AM 31.0053 -78.2175 14° North 451 519 37,000  Level Jacksonville Center
Mon 12:18:24 AM 31.1275 -78.1944 North 451 519 37,000  Level Jacksonville Center
Mon 12:19:24 AM 31.2519 -78.1689 10° North 446 513 37,000  Level Jacksonville Center
Mon 12:20:24 AM 31.3761 -78.1406 11° North 454 522 37,000  Level Jacksonville Center
Mon 12:21:24 AM 31.5025 -78.1172 North 452 520 37,000  Level Jacksonville Center
Mon 12:22:24 AM 31.6244 -78.0842 13° North 452 520 37,000  Level Jacksonville Center
Mon 12:23:24 AM 31.7506 -78.0556 11° North 454 522 37,000  Level Jacksonville Center
Mon 12:24:24 AM 31.8792 -78.0292 10° North 451 519 37,000  Level Jacksonville Center
Mon 12:25:24 AM 32.0033 -78.0056 North 451 519 37,000  Level Jacksonville Center
Mon 12:26:24 AM 32.1297 -77.9792 10° North 456 525 37,000  Level Jacksonville Center
Mon 12:27:24 AM 32.2536 -77.9481 12° North 456 525 37,000  Level Jacksonville Center
Mon 12:28:24 AM 32.3800 -77.9214 10° North 456 525 37,000  Level Jacksonville Center
Mon 12:29:24 AM 32.5083 -77.8947 10° North 462 532 37,000  Level Jacksonville Center
Mon 12:30:24 AM 32.6328 -77.8756 North 462 532 37,000  Level Jacksonville Center
Mon 12:31:24 AM 32.7561 -77.8811 358° North 455 524 37,000  Level Jacksonville Center
Mon 12:33:38 AM 33.0314 -77.8997 357° North 456 525 37,000  Level Washington Center
Mon 12:34:38 AM 33.1544 -77.9081 357° North 445 512 37,000  Level Washington Center
Mon 12:35:40 AM 33.2753 -77.9139 358° North 440 506 37,000  Level Washington Center
Mon 12:36:39 AM 33.3981 -77.9222 357° North 440 506 37,000  Level Washington Center
Mon 12:37:38 AM 33.5211 -77.9281 358° North 440 506 37,000  Level Washington Center
Mon 12:38:41 AM 33.6461 -77.9367 357° North 440 506 37,000  Level Washington Center
Mon 12:39:38 AM 33.7692 -77.9425 358° North 440 506 37,000  Level Washington Center
Mon 12:40:38 AM 33.8692 -77.9503 356° North 440 506 37,000  Level Washington Center
Mon 12:41:41 AM 34.0233 -77.9572 358° North 445 512 37,000  Level Washington Center
Mon 12:42:38 AM 34.1486 -77.9508 North 445 512 37,000  Level Washington Center
Mon 12:43:38 AM 34.2747 -77.9042 17° North 450 518 37,000  Level Washington Center
Mon 12:44:38 AM 34.3964 -77.8722 12° North 472 543 37,000  Level Washington Center
Mon 12:45:39 AM 34.5197 -77.8606 North 461 531 37,000  Level Washington Center
Mon 12:46:40 AM 34.6472 -77.8464 North 461 531 37,000  Level Washington Center
Mon 12:47:38 AM 34.7725 -77.8347 North 461 531 37,000  Level Washington Center
Mon 12:48:38 AM 34.9128 -77.8158 North 461 531 37,000  Level Washington Center
Mon 12:49:38 AM 35.0381 -77.8017 North 456 525 37,000  Level Washington Center
Mon 12:50:38 AM 35.1636 -77.7897 North 456 525 37,000  Level Washington Center
Mon 12:51:39 AM 35.2911 -77.7753 North 456 525 37,000  Level Washington Center
Mon 12:52:38 AM 35.4186 -77.7611 North 456 525 37,000  Level Washington Center
Mon 12:53:38 AM 35.5461 -77.7467 North 456 525 37,000  Level Washington Center
Mon 12:54:38 AM 35.6633 -77.7344 North 467 537 37,000  Level Washington Center
Mon 12:55:39 AM 35.7928 -77.7250 North 467 537 37,000  Level Washington Center
Mon 12:56:40 AM 35.9203 -77.7106 North 462 532 37,000  Level Washington Center
Mon 12:57:39 AM 36.0522 -77.6858 North 462 532 37,000  Level Washington Center
Mon 12:58:38 AM 36.1864 -77.6533 11° North 475 547 37,000  Level Washington Center
Mon 12:59:39 AM 36.3183 -77.6208 11° North 475 547 37,000  Level Washington Center
Mon 01:00:40 AM 36.4461 -77.5878 12° North 480 552 37,000  Level Washington Center
Mon 01:01:41 AM 36.5781 -77.5578 10° North 475 547 37,000 -305 Level Washington Center
Mon 01:02:38 AM 36.7122 -77.5222 12° North 475 547 36,400 -1,282 Descending Washington Center
Mon 01:03:38 AM 36.8419 -77.4892 12° North 475 547 34,500 -2,300 Descending Washington Center
Mon 01:04:38 AM 36.9739 -77.4558 11° North 475 547 31,800 -2,550 Descending Washington Center
Mon 01:05:38 AM 37.1122 -77.4228 11° North 480 552 29,400 -2,300 Descending Washington Center
Mon 01:06:38 AM 37.2464 -77.3869 12° North 486 559 27,200 -1,574 Descending Washington Center
Mon 01:07:40 AM 37.3761 -77.3533 12° North 486 559 26,200 -1,050 Descending Washington Center
Mon 01:08:38 AM 37.5017 -77.3222 11° North 474 545 25,100 -1,068 Descending Washington Center
Mon 01:09:38 AM 37.6272 -77.2936 10° North 461 531 24,100 -1,000 Descending Washington Center
Mon 01:10:38 AM 37.7528 -77.2700 North 461 531 23,100 -992 Descending Washington Center
Mon 01:11:39 AM 37.8742 -77.2439 10° North 449 517 22,100 -1,550 Descending Washington Center
Mon 01:12:38 AM 37.9953 -77.2175 10° North 444 511 20,000 -2,200 Descending Washington Center
Mon 01:13:39 AM 38.1250 -77.1939 North 438 504 17,700 -1,850 Descending Washington Center
Mon 01:14:38 AM 38.2275 -77.1592 15° North 425 489 16,300 -1,311 Descending Washington Center
Mon 01:15:38 AM 38.3206 -77.0658 38° Northeast 408 470 15,100 -1,500 Descending Washington Center
Mon 01:16:38 AM 38.4050 -76.9694 42° Northeast 408 470 13,300 -1,850 Descending Washington Center
Mon 01:17:38 AM 38.4917 -76.8756 40° Northeast 408 470 11,400 -1,550 Descending Washington Center
Mon 01:18:38 AM 38.5719 -76.7839 42° Northeast 398 458 10,200 -1,082 Descending Washington Center
Mon 01:19:40 AM 38.6433 -76.7028 42° Northeast 369 425 9,200 -1,220 Descending Washington Center
Mon 01:20:41 AM 38.7131 -76.6214 42° Northeast 351 404 7,700 -1,647 Descending Washington Center
Mon 01:21:22 AM 38.7667 -76.5500 46° Northeast 342 394 6,400 -1,485 Descending Potomac TRACON
Mon 01:22:22 AM 38.8500 -76.5333 North 301 346 5,200 -1,190 Descending Potomac TRACON
Mon 01:23:23 AM 38.9333 -76.5667 343° North 291 335 4,000 -645 Descending Potomac TRACON
Mon 01:24:23 AM 38.9833 -76.6167 322° Northwest 285 328 3,900 -50 Descending Potomac TRACON
Mon 01:25:23 AM 39.0167 -76.6833 303° West 238 274 3,900 -50 Level Potomac TRACON
Mon 01:26:23 AM 39.0500 -76.7500 303° West 208 239 3,800 -500 Descending Potomac TRACON
Mon 01:27:23 AM 39.0667 -76.8167 288° West 185 213 2,900 -450 Descending Potomac TRACON
Mon 01:28:23 AM 39.0833 -76.8667 293° West 171 197 2,900  Level Potomac TRACON
Mon 01:29:23 AM 39.1167 -76.9167 311° West 173 199 2,900 -50 Level Potomac TRACON
Mon 01:30:23 AM 39.1667 -76.8667 38° Northeast 242 278 2,800 -500 Descending Potomac TRACON
Mon 01:31:23 AM 39.1833 -76.8000 72° East 210 242 1,900 -850 Descending Potomac TRACON
Mon 01:32:23 AM 39.1833 -76.7500 90° East 168 193 1,100 -800 Descending Potomac TRACON
Mon 01:34:00 AM 39.1667 -76.6667 75° East  Level FlightAware Approximate
Mon 01:41:00 AM 39.1754 -76.6683 75° East  Level Estimated
Mon 01:42:00 AM 39.1754 -76.6683 75° East  Level Estimated

Login

Don't have an account? Register now (free) for customized features, flight alerts, and more!